La Grande, Canada
Current Conditions -  °F | °C
As of 5:00 AM on Wednesday 22 Oct 2014 (Local Time) from CYGL Reporting Station
Few Clouds Few Clouds  
Wind Chill: 17°   Ceiling: Unl
Heat Index: 27°   Visibility: 15mi
Dew Point: 23°   Wind: 10mph
Humidity: 86%   Direction: 180°S
Pressure: 30.36"   Gusts: NA
Location:  53.63°N, 77.7°W
Report Text: CYGL 220900Z 18009KT 15SM FEW240 M03/M05 A3036 RMK CI1 AURBO SLP296
Loading
Personal Weather Stations






























Interactive Weather Map
Tropical Storm Tracking
New forecast layout! Learn more

10-Day Weather Forecast

Advertisements
Track Severe Weather on mobile